sensor_id;sensor_type;location;lat;lon;timestamp;pressure;altitude;pressure_sealevel;temperature;humidity
57248;BME280;55809;46.618;10.764;2023-07-31T00:00:54;92930.25;;;17.18;61.13
57248;BME280;55809;46.618;10.764;2023-07-31T00:03:21;92934.03;;;17.20;61.68
57248;BME280;55809;46.618;10.764;2023-07-31T00:05:48;92964.13;;;17.29;60.58
57248;BME280;55809;46.618;10.764;2023-07-31T00:08:16;92902.28;;;16.92;60.86
57248;BME280;55809;46.618;10.764;2023-07-31T00:10:43;92958.91;;;17.35;60.77
57248;BME280;55809;46.618;10.764;2023-07-31T00:13:10;92957.25;;;17.38;60.87
57248;BME280;55809;46.618;10.764;2023-07-31T00:15:37;92955.28;;;17.38;60.67
57248;BME280;55809;46.618;10.764;2023-07-31T00:18:04;92934.13;;;17.29;60.72
57248;BME280;55809;46.618;10.764;2023-07-31T00:20:31;92951.81;;;17.38;61.04
57248;BME280;55809;46.618;10.764;2023-07-31T00:22:58;92946.00;;;17.35;60.68
57248;BME280;55809;46.618;10.764;2023-07-31T00:25:26;92947.53;;;17.37;61.11
57248;BME280;55809;46.618;10.764;2023-07-31T00:27:53;92952.56;;;17.38;60.78
57248;BME280;55809;46.618;10.764;2023-07-31T00:30:20;92950.94;;;17.41;60.66
57248;BME280;55809;46.618;10.764;2023-07-31T00:32:48;92956.38;;;17.41;60.58
57248;BME280;55809;46.618;10.764;2023-07-31T00:35:16;92934.81;;;17.21;59.52
57248;BME280;55809;46.618;10.764;2023-07-31T00:37:43;92953.00;;;17.37;59.78
57248;BME280;55809;46.618;10.764;2023-07-31T00:40:10;92958.78;;;17.39;60.34
57248;BME280;55809;46.618;10.764;2023-07-31T00:42:38;92912.91;;;17.11;60.03
57248;BME280;55809;46.618;10.764;2023-07-31T00:45:06;92961.50;;;17.39;60.86
57248;BME280;55809;46.618;10.764;2023-07-31T00:47:33;92963.91;;;17.37;60.61
57248;BME280;55809;46.618;10.764;2023-07-31T00:50:00;92963.25;;;17.32;60.65
57248;BME280;55809;46.618;10.764;2023-07-31T00:52:27;92945.53;;;17.15;60.87
57248;BME280;55809;46.618;10.764;2023-07-31T00:54:54;92941.59;;;17.03;60.91
57248;BME280;55809;46.618;10.764;2023-07-31T00:57:21;92965.47;;;17.25;61.74
57248;BME280;55809;46.618;10.764;2023-07-31T00:59:50;92960.56;;;17.20;62.14
57248;BME280;55809;46.618;10.764;2023-07-31T01:02:18;92942.16;;;16.98;62.00
57248;BME280;55809;46.618;10.764;2023-07-31T01:04:45;92967.34;;;17.15;62.20
57248;BME280;55809;46.618;10.764;2023-07-31T01:07:20;92979.56;;;17.10;61.99
57248;BME280;55809;46.618;10.764;2023-07-31T01:09:55;92974.66;;;17.05;62.08
57248;BME280;55809;46.618;10.764;2023-07-31T01:12:27;92955.03;;;16.98;62.15
57248;BME280;55809;46.618;10.764;2023-07-31T01:22:00;92941.06;;;16.70;63.31
57248;BME280;55809;46.618;10.764;2023-07-31T01:24:42;92971.84;;;16.83;63.60
57248;BME280;55809;46.618;10.764;2023-07-31T01:27:23;92962.25;;;16.79;64.27
57248;BME280;55809;46.618;10.764;2023-07-31T01:29:55;92967.81;;;16.75;65.15
57248;BME280;55809;46.618;10.764;2023-07-31T01:32:24;92937.25;;;16.55;64.39
57248;BME280;55809;46.618;10.764;2023-07-31T01:34:52;92941.50;;;16.56;64.16
57248;BME280;55809;46.618;10.764;2023-07-31T01:37:20;92934.44;;;16.46;64.01
57248;BME280;55809;46.618;10.764;2023-07-31T01:39:47;92938.78;;;16.56;63.91
57248;BME280;55809;46.618;10.764;2023-07-31T01:59:24;92973.34;;;16.46;65.92
57248;BME280;55809;46.618;10.764;2023-07-31T02:01:51;92950.88;;;16.29;66.17
57248;BME280;55809;46.618;10.764;2023-07-31T02:04:18;92966.56;;;16.38;65.85
57248;BME280;55809;46.618;10.764;2023-07-31T02:06:45;92971.69;;;16.36;66.27
57248;BME280;55809;46.618;10.764;2023-07-31T02:09:14;92983.00;;;16.34;65.66
57248;BME280;55809;46.618;10.764;2023-07-31T02:11:41;92984.41;;;16.26;65.98
57248;BME280;55809;46.618;10.764;2023-07-31T02:14:08;92973.84;;;16.28;65.96
57248;BME280;55809;46.618;10.764;2023-07-31T02:16:37;92955.81;;;16.05;65.90
57248;BME280;55809;46.618;10.764;2023-07-31T02:19:04;92952.34;;;16.05;66.29
57248;BME280;55809;46.618;10.764;2023-07-31T02:24:39;92960.84;;;16.07;66.70
57248;BME280;55809;46.618;10.764;2023-07-31T02:27:07;92970.91;;;16.23;66.92
57248;BME280;55809;46.618;10.764;2023-07-31T02:29:36;92907.63;;;15.77;67.10
57248;BME280;55809;46.618;10.764;2023-07-31T05:49:34;92971.00;;;17.69;60.93
57248;BME280;55809;46.618;10.764;2023-07-31T05:52:02;93003.59;;;17.98;61.16
57248;BME280;55809;46.618;10.764;2023-07-31T05:54:29;93005.06;;;18.12;60.61
57248;BME280;55809;46.618;10.764;2023-07-31T05:56:57;93007.84;;;18.21;60.59
57248;BME280;55809;46.618;10.764;2023-07-31T05:59:24;93003.09;;;18.34;60.37
57248;BME280;55809;46.618;10.764;2023-07-31T06:01:52;93002.06;;;18.41;60.67
57248;BME280;55809;46.618;10.764;2023-07-31T06:04:19;93005.16;;;18.52;60.28
57248;BME280;55809;46.618;10.764;2023-07-31T06:06:48;92991.00;;;18.44;59.79
57248;BME280;55809;46.618;10.764;2023-07-31T06:09:15;93003.50;;;18.55;59.66
57248;BME280;55809;46.618;10.764;2023-07-31T06:11:42;92966.75;;;18.24;60.29
57248;BME280;55809;46.618;10.764;2023-07-31T06:14:09;93006.19;;;18.45;60.92
57248;BME280;55809;46.618;10.764;2023-07-31T06:19:58;92998.19;;;18.29;61.53
57248;BME280;55809;46.618;10.764;2023-07-31T06:22:27;92981.16;;;18.25;61.14
57248;BME280;55809;46.618;10.764;2023-07-31T06:24:54;93002.88;;;18.50;61.10
57248;BME280;55809;46.618;10.764;2023-07-31T06:27:21;93005.47;;;18.54;61.20
57248;BME280;55809;46.618;10.764;2023-07-31T06:29:48;93012.19;;;18.62;60.95
57248;BME280;55809;46.618;10.764;2023-07-31T06:32:15;93012.25;;;18.71;60.67
57248;BME280;55809;46.618;10.764;2023-07-31T06:34:42;93005.91;;;18.74;60.48
57248;BME280;55809;46.618;10.764;2023-07-31T06:37:09;93012.94;;;18.76;60.39
57248;BME280;55809;46.618;10.764;2023-07-31T06:39:40;93013.22;;;18.78;60.32
57248;BME280;55809;46.618;10.764;2023-07-31T06:42:07;93011.09;;;18.82;60.33
57248;BME280;55809;46.618;10.764;2023-07-31T06:44:33;93011.97;;;19.01;59.96
57248;BME280;55809;46.618;10.764;2023-07-31T06:47:01;93008.22;;;19.16;59.72
57248;BME280;55809;46.618;10.764;2023-07-31T06:49:28;93009.19;;;19.32;59.41
57248;BME280;55809;46.618;10.764;2023-07-31T06:51:55;93011.19;;;19.50;58.98
57248;BME280;55809;46.618;10.764;2023-07-31T06:54:22;93016.84;;;19.55;58.54
57248;BME280;55809;46.618;10.764;2023-07-31T06:56:50;93023.38;;;19.49;58.47
57248;BME280;55809;46.618;10.764;2023-07-31T06:59:17;93010.25;;;19.43;59.12
57248;BME280;55809;46.618;10.764;2023-07-31T07:01:44;93012.84;;;19.47;59.43
57248;BME280;55809;46.618;10.764;2023-07-31T07:04:11;93015.78;;;19.62;59.02
57248;BME280;55809;46.618;10.764;2023-07-31T07:06:38;93009.28;;;19.68;58.53
57248;BME280;55809;46.618;10.764;2023-07-31T07:09:05;92971.22;;;19.61;58.34
57248;BME280;55809;46.618;10.764;2023-07-31T07:11:33;92955.69;;;19.58;58.13
57248;BME280;55809;46.618;10.764;2023-07-31T07:14:01;92985.88;;;19.95;57.51
57248;BME280;55809;46.618;10.764;2023-07-31T07:16:30;92991.94;;;20.08;57.85
57248;BME280;55809;46.618;10.764;2023-07-31T07:18:57;92994.38;;;20.06;57.94
57248;BME280;55809;46.618;10.764;2023-07-31T07:21:24;92966.09;;;19.82;57.54
57248;BME280;55809;46.618;10.764;2023-07-31T07:23:51;92958.31;;;19.80;57.91
57248;BME280;55809;46.618;10.764;2023-07-31T07:26:18;92994.84;;;20.14;58.43
57248;BME280;55809;46.618;10.764;2023-07-31T07:28:45;92971.81;;;20.30;57.71
57248;BME280;55809;46.618;10.764;2023-07-31T07:31:14;92983.63;;;20.73;55.00
57248;BME280;55809;46.618;10.764;2023-07-31T07:33:41;92976.28;;;20.88;58.17
57248;BME280;55809;46.618;10.764;2023-07-31T07:36:07;92980.25;;;21.20;57.37
57248;BME280;55809;46.618;10.764;2023-07-31T07:38:35;92964.00;;;21.31;55.55
57248;BME280;55809;46.618;10.764;2023-07-31T07:41:04;92972.41;;;21.37;55.14
57248;BME280;55809;46.618;10.764;2023-07-31T07:43:31;92962.47;;;21.64;54.27
57248;BME280;55809;46.618;10.764;2023-07-31T07:45:57;92963.28;;;21.79;53.38
57248;BME280;55809;46.618;10.764;2023-07-31T07:48:26;92958.81;;;22.06;52.71
57248;BME280;55809;46.618;10.764;2023-07-31T07:50:53;92947.78;;;22.30;51.26
57248;BME280;55809;46.618;10.764;2023-07-31T07:53:20;92949.41;;;22.51;51.19
57248;BME280;55809;46.618;10.764;2023-07-31T07:55:47;92947.19;;;23.00;50.39
57248;BME280;55809;46.618;10.764;2023-07-31T07:58:14;92942.63;;;23.11;51.47
57248;BME280;55809;46.618;10.764;2023-07-31T08:00:41;92930.56;;;23.09;49.44
57248;BME280;55809;46.618;10.764;2023-07-31T08:03:08;92950.53;;;23.59;50.08
57248;BME280;55809;46.618;10.764;2023-07-31T08:05:36;92945.63;;;24.10;47.74
57248;BME280;55809;46.618;10.764;2023-07-31T08:08:03;92944.81;;;24.50;45.62
57248;BME280;55809;46.618;10.764;2023-07-31T08:10:30;92945.41;;;24.60;44.65
57248;BME280;55809;46.618;10.764;2023-07-31T08:13:00;92950.00;;;25.00;44.69
57248;BME280;55809;46.618;10.764;2023-07-31T08:15:27;92945.34;;;25.12;43.12
57248;BME280;55809;46.618;10.764;2023-07-31T08:17:54;92951.44;;;25.22;42.55
57248;BME280;55809;46.618;10.764;2023-07-31T08:20:21;92935.63;;;25.22;42.86
57248;BME280;55809;46.618;10.764;2023-07-31T08:22:49;92954.91;;;25.54;42.86
57248;BME280;55809;46.618;10.764;2023-07-31T08:25:17;92942.19;;;25.79;42.34
57248;BME280;55809;46.618;10.764;2023-07-31T08:27:44;92942.06;;;26.00;42.69
57248;BME280;55809;46.618;10.764;2023-07-31T08:30:12;92946.69;;;26.31;42.63
57248;BME280;55809;46.618;10.764;2023-07-31T08:32:39;92944.63;;;26.26;41.83
57248;BME280;55809;46.618;10.764;2023-07-31T08:35:06;92950.84;;;25.98;41.42
57248;BME280;55809;46.618;10.764;2023-07-31T08:37:33;92950.91;;;25.61;41.97
57248;BME280;55809;46.618;10.764;2023-07-31T08:40:02;92946.41;;;25.69;39.32
57248;BME280;55809;46.618;10.764;2023-07-31T08:42:29;92946.91;;;25.62;40.56
57248;BME280;55809;46.618;10.764;2023-07-31T08:44:57;92930.28;;;26.10;41.97
57248;BME280;55809;46.618;10.764;2023-07-31T08:47:26;92920.28;;;26.47;40.76
57248;BME280;55809;46.618;10.764;2023-07-31T08:49:54;92913.28;;;26.62;42.32
57248;BME280;55809;46.618;10.764;2023-07-31T08:52:22;92899.69;;;26.64;41.72
57248;BME280;55809;46.618;10.764;2023-07-31T08:54:49;92897.94;;;26.56;42.81
57248;BME280;55809;46.618;10.764;2023-07-31T08:57:17;92904.47;;;26.53;42.51
57248;BME280;55809;46.618;10.764;2023-07-31T08:59:45;92909.00;;;26.67;42.17
57248;BME280;55809;46.618;10.764;2023-07-31T09:02:13;92880.75;;;26.35;43.21
57248;BME280;55809;46.618;10.764;2023-07-31T09:04:42;92903.19;;;26.48;43.87
57248;BME280;55809;46.618;10.764;2023-07-31T09:07:09;92872.47;;;26.24;39.70
57248;BME280;55809;46.618;10.764;2023-07-31T09:09:38;92898.19;;;26.75;42.62
57248;BME280;55809;46.618;10.764;2023-07-31T09:12:07;92870.00;;;26.59;40.58
57248;BME280;55809;46.618;10.764;2023-07-31T09:14:35;92885.88;;;26.59;40.88
57248;BME280;55809;46.618;10.764;2023-07-31T09:17:04;92881.81;;;26.49;42.66
57248;BME280;55809;46.618;10.764;2023-07-31T09:19:33;92879.28;;;26.84;41.49
57248;BME280;55809;46.618;10.764;2023-07-31T09:22:03;92882.56;;;27.00;41.41
57248;BME280;55809;46.618;10.764;2023-07-31T09:24:31;92856.13;;;26.42;39.36
57248;BME280;55809;46.618;10.764;2023-07-31T09:26:59;92865.41;;;26.45;42.47
57248;BME280;55809;46.618;10.764;2023-07-31T09:29:27;92862.84;;;25.96;41.10
57248;BME280;55809;46.618;10.764;2023-07-31T09:31:56;92862.59;;;26.00;40.46
57248;BME280;55809;46.618;10.764;2023-07-31T09:34:29;92864.88;;;26.02;40.54
57248;BME280;55809;46.618;10.764;2023-07-31T09:36:59;92841.38;;;25.69;44.16
57248;BME280;55809;46.618;10.764;2023-07-31T09:39:27;92846.75;;;25.95;41.60
57248;BME280;55809;46.618;10.764;2023-07-31T09:41:56;92846.78;;;26.06;40.21
57248;BME280;55809;46.618;10.764;2023-07-31T09:44:37;92848.31;;;26.35;42.77
57248;BME280;55809;46.618;10.764;2023-07-31T09:47:06;92845.81;;;26.37;42.67
57248;BME280;55809;46.618;10.764;2023-07-31T09:49:33;92845.56;;;26.75;41.02
57248;BME280;55809;46.618;10.764;2023-07-31T09:52:00;92855.13;;;26.46;41.07
57248;BME280;55809;46.618;10.764;2023-07-31T09:54:27;92849.59;;;26.68;40.33
57248;BME280;55809;46.618;10.764;2023-07-31T09:56:54;92842.28;;;26.87;40.23
57248;BME280;55809;46.618;10.764;2023-07-31T09:59:23;92840.53;;;26.84;38.18
57248;BME280;55809;46.618;10.764;2023-07-31T10:01:50;92837.97;;;26.98;39.35
57248;BME280;55809;46.618;10.764;2023-07-31T10:04:24;92832.41;;;27.26;39.82
57248;BME280;55809;46.618;10.764;2023-07-31T10:06:54;92825.88;;;27.01;39.21
57248;BME280;55809;46.618;10.764;2023-07-31T10:09:24;92815.28;;;27.22;36.61
57248;BME280;55809;46.618;10.764;2023-07-31T10:11:56;92816.00;;;27.33;37.64
57248;BME280;55809;46.618;10.764;2023-07-31T10:14:26;92821.06;;;27.29;37.38
57248;BME280;55809;46.618;10.764;2023-07-31T10:16:54;92818.97;;;27.47;36.01
57248;BME280;55809;46.618;10.764;2023-07-31T10:19:27;92821.53;;;27.39;35.23
57248;BME280;55809;46.618;10.764;2023-07-31T10:21:56;92791.88;;;27.06;35.79
57248;BME280;55809;46.618;10.764;2023-07-31T10:24:25;92819.56;;;27.17;35.87
57248;BME280;55809;46.618;10.764;2023-07-31T10:26:53;92804.97;;;27.17;35.82
57248;BME280;55809;46.618;10.764;2023-07-31T10:29:24;92810.63;;;27.58;38.14
57248;BME280;55809;46.618;10.764;2023-07-31T10:31:52;92816.09;;;27.69;37.25
57248;BME280;55809;46.618;10.764;2023-07-31T10:34:20;92806.00;;;27.72;37.18
57248;BME280;55809;46.618;10.764;2023-07-31T10:37:20;92802.97;;;27.70;37.42
57248;BME280;55809;46.618;10.764;2023-07-31T10:39:56;92806.50;;;27.70;38.17
57248;BME280;55809;46.618;10.764;2023-07-31T10:42:28;92798.06;;;27.51;37.87
57248;BME280;55809;46.618;10.764;2023-07-31T10:44:58;92791.66;;;27.68;36.66
57248;BME280;55809;46.618;10.764;2023-07-31T10:47:25;92768.16;;;27.27;38.98
57248;BME280;55809;46.618;10.764;2023-07-31T10:49:52;92778.44;;;27.38;37.02
57248;BME280;55809;46.618;10.764;2023-07-31T10:52:21;92775.91;;;27.40;38.20
57248;BME280;55809;46.618;10.764;2023-07-31T10:54:49;92773.88;;;27.41;39.31
57248;BME280;55809;46.618;10.764;2023-07-31T10:57:20;92777.91;;;27.45;41.03
57248;BME280;55809;46.618;10.764;2023-07-31T10:59:48;92774.03;;;27.59;40.08
57248;BME280;55809;46.618;10.764;2023-07-31T11:02:25;92778.38;;;27.55;39.77
57248;BME280;55809;46.618;10.764;2023-07-31T11:05:06;92756.47;;;27.46;39.03
57248;BME280;55809;46.618;10.764;2023-07-31T11:07:48;92759.09;;;27.74;39.73
57248;BME280;55809;46.618;10.764;2023-07-31T11:10:19;92760.53;;;27.92;39.75
57248;BME280;55809;46.618;10.764;2023-07-31T11:12:46;92754.16;;;27.61;38.35
57248;BME280;55809;46.618;10.764;2023-07-31T11:15:13;92743.06;;;27.55;39.43
57248;BME280;55809;46.618;10.764;2023-07-31T11:17:40;92744.75;;;27.70;41.37
57248;BME280;55809;46.618;10.764;2023-07-31T11:20:11;92743.81;;;27.56;39.23
57248;BME280;55809;46.618;10.764;2023-07-31T11:22:38;92744.91;;;27.42;40.79
57248;BME280;55809;46.618;10.764;2023-07-31T11:25:08;92735.88;;;27.35;39.58
57248;BME280;55809;46.618;10.764;2023-07-31T11:27:39;92745.97;;;27.33;39.60
57248;BME280;55809;46.618;10.764;2023-07-31T11:30:07;92743.00;;;27.20;43.49
57248;BME280;55809;46.618;10.764;2023-07-31T11:32:36;92713.31;;;26.98;40.63
57248;BME280;55809;46.618;10.764;2023-07-31T11:35:03;92727.22;;;26.92;41.56
57248;BME280;55809;46.618;10.764;2023-07-31T11:37:41;92738.09;;;26.62;41.86
57248;BME280;55809;46.618;10.764;2023-07-31T11:40:11;92722.28;;;26.46;42.93
57248;BME280;55809;46.618;10.764;2023-07-31T11:42:38;92713.44;;;26.47;41.76
57248;BME280;55809;46.618;10.764;2023-07-31T11:45:06;92713.97;;;26.40;44.37
57248;BME280;55809;46.618;10.764;2023-07-31T11:47:34;92698.13;;;26.12;43.21
57248;BME280;55809;46.618;10.764;2023-07-31T11:50:02;92705.69;;;25.95;44.71
57248;BME280;55809;46.618;10.764;2023-07-31T11:52:30;92707.91;;;25.80;43.75
57248;BME280;55809;46.618;10.764;2023-07-31T11:54:59;92703.66;;;25.79;44.28
57248;BME280;55809;46.618;10.764;2023-07-31T11:57:28;92672.00;;;25.68;44.65
57248;BME280;55809;46.618;10.764;2023-07-31T11:59:56;92666.69;;;25.59;45.95
57248;BME280;55809;46.618;10.764;2023-07-31T12:02:24;92682.81;;;25.89;43.95
57248;BME280;55809;46.618;10.764;2023-07-31T12:04:51;92634.03;;;25.46;45.61
57248;BME280;55809;46.618;10.764;2023-07-31T12:07:18;92659.16;;;25.48;45.55
57248;BME280;55809;46.618;10.764;2023-07-31T12:09:52;92652.38;;;25.44;47.10
57248;BME280;55809;46.618;10.764;2023-07-31T12:12:20;92667.19;;;25.52;48.52
57248;BME280;55809;46.618;10.764;2023-07-31T12:14:50;92659.91;;;25.49;47.53
57248;BME280;55809;46.618;10.764;2023-07-31T12:17:19;92633.78;;;25.39;46.62
57248;BME280;55809;46.618;10.764;2023-07-31T12:19:48;92645.59;;;25.34;48.20
57248;BME280;55809;46.618;10.764;2023-07-31T12:22:16;92638.03;;;25.29;47.71
57248;BME280;55809;46.618;10.764;2023-07-31T12:24:44;92643.56;;;25.34;49.75
57248;BME280;55809;46.618;10.764;2023-07-31T12:27:11;92637.53;;;25.53;49.22
57248;BME280;55809;46.618;10.764;2023-07-31T12:29:39;92622.25;;;25.57;50.67
57248;BME280;55809;46.618;10.764;2023-07-31T12:32:20;92616.69;;;25.63;48.03
57248;BME280;55809;46.618;10.764;2023-07-31T12:34:47;92615.69;;;25.71;49.45
57248;BME280;55809;46.618;10.764;2023-07-31T12:37:14;92608.91;;;25.72;50.10
57248;BME280;55809;46.618;10.764;2023-07-31T12:39:41;92598.88;;;25.58;48.30
57248;BME280;55809;46.618;10.764;2023-07-31T12:42:08;92599.13;;;25.60;49.59
57248;BME280;55809;46.618;10.764;2023-07-31T12:44:35;92596.38;;;25.60;47.96
57248;BME280;55809;46.618;10.764;2023-07-31T12:47:03;92596.09;;;25.53;50.15
57248;BME280;55809;46.618;10.764;2023-07-31T12:49:32;92586.28;;;25.46;51.09
57248;BME280;55809;46.618;10.764;2023-07-31T12:51:59;92587.06;;;25.52;50.58
57248;BME280;55809;46.618;10.764;2023-07-31T12:54:26;92579.03;;;25.54;49.94
57248;BME280;55809;46.618;10.764;2023-07-31T12:56:53;92575.50;;;25.42;49.72
57248;BME280;55809;46.618;10.764;2023-07-31T12:59:20;92573.50;;;25.15;48.89
57248;BME280;55809;46.618;10.764;2023-07-31T13:01:47;92579.50;;;25.13;49.76
57248;BME280;55809;46.618;10.764;2023-07-31T13:04:14;92572.69;;;25.09;48.89
57248;BME280;55809;46.618;10.764;2023-07-31T13:06:42;92574.44;;;25.06;50.04
57248;BME280;55809;46.618;10.764;2023-07-31T13:09:11;92539.53;;;24.86;51.13
57248;BME280;55809;46.618;10.764;2023-07-31T13:11:38;92560.63;;;25.06;50.99
57248;BME280;55809;46.618;10.764;2023-07-31T13:14:06;92561.38;;;24.95;50.19
57248;BME280;55809;46.618;10.764;2023-07-31T13:16:33;92563.38;;;24.89;51.68
57248;BME280;55809;46.618;10.764;2023-07-31T13:18:59;92556.59;;;24.85;52.38
57248;BME280;55809;46.618;10.764;2023-07-31T13:21:27;92549.06;;;24.96;50.13
57248;BME280;55809;46.618;10.764;2023-07-31T13:23:55;92544.59;;;25.04;53.08
57248;BME280;55809;46.618;10.764;2023-07-31T13:26:24;92552.41;;;25.17;51.92
57248;BME280;55809;46.618;10.764;2023-07-31T13:28:51;92552.38;;;25.12;53.75
57248;BME280;55809;46.618;10.764;2023-07-31T13:31:18;92551.88;;;25.08;53.24
57248;BME280;55809;46.618;10.764;2023-07-31T13:33:45;92536.75;;;24.86;51.45
57248;BME280;55809;46.618;10.764;2023-07-31T13:36:13;92543.78;;;24.76;51.65
57248;BME280;55809;46.618;10.764;2023-07-31T13:38:40;92541.03;;;24.76;52.20
57248;BME280;55809;46.618;10.764;2023-07-31T13:41:08;92540.50;;;24.72;52.94
57248;BME280;55809;46.618;10.764;2023-07-31T13:43:36;92539.75;;;24.71;51.19
57248;BME280;55809;46.618;10.764;2023-07-31T13:46:04;92545.53;;;24.73;52.25
57248;BME280;55809;46.618;10.764;2023-07-31T13:48:33;92537.22;;;24.62;50.87
57248;BME280;55809;46.618;10.764;2023-07-31T13:51:01;92537.47;;;24.64;52.58
57248;BME280;55809;46.618;10.764;2023-07-31T13:53:28;92532.22;;;24.66;51.60
57248;BME280;55809;46.618;10.764;2023-07-31T13:55:55;92533.97;;;24.58;52.39
57248;BME280;55809;46.618;10.764;2023-07-31T13:58:24;92544.28;;;24.69;53.76
57248;BME280;55809;46.618;10.764;2023-07-31T14:00:51;92542.75;;;24.62;53.16
57248;BME280;55809;46.618;10.764;2023-07-31T14:03:18;92543.47;;;24.46;52.26
57248;BME280;55809;46.618;10.764;2023-07-31T14:05:45;92532.91;;;24.44;53.50
57248;BME280;55809;46.618;10.764;2023-07-31T14:08:12;92540.63;;;24.34;52.95
57248;BME280;55809;46.618;10.764;2023-07-31T14:10:39;92537.56;;;24.21;52.60
57248;BME280;55809;46.618;10.764;2023-07-31T14:13:06;92542.09;;;24.19;54.44
57248;BME280;55809;46.618;10.764;2023-07-31T14:15:34;92542.28;;;24.15;54.39
57248;BME280;55809;46.618;10.764;2023-07-31T14:18:04;92536.00;;;24.03;54.56
57248;BME280;55809;46.618;10.764;2023-07-31T14:20:31;92547.53;;;24.07;54.94
57248;BME280;55809;46.618;10.764;2023-07-31T14:22:59;92553.00;;;23.96;54.44
57248;BME280;55809;46.618;10.764;2023-07-31T14:25:26;92512.22;;;23.63;54.83
57248;BME280;55809;46.618;10.764;2023-07-31T14:27:53;92557.94;;;23.81;55.16
57248;BME280;55809;46.618;10.764;2023-07-31T14:30:20;92557.41;;;23.77;56.08
57248;BME280;55809;46.618;10.764;2023-07-31T14:32:49;92550.88;;;23.74;56.15
57248;BME280;55809;46.618;10.764;2023-07-31T14:35:16;92556.53;;;23.65;56.77
57248;BME280;55809;46.618;10.764;2023-07-31T14:37:44;92563.03;;;23.62;57.20
57248;BME280;55809;46.618;10.764;2023-07-31T14:40:12;92553.53;;;23.63;57.20
57248;BME280;55809;46.618;10.764;2023-07-31T14:42:39;92557.13;;;23.69;56.12
57248;BME280;55809;46.618;10.764;2023-07-31T14:45:07;92552.34;;;23.70;56.43
57248;BME280;55809;46.618;10.764;2023-07-31T14:47:35;92555.34;;;23.72;55.55
57248;BME280;55809;46.618;10.764;2023-07-31T14:50:05;92553.63;;;23.74;55.85
57248;BME280;55809;46.618;10.764;2023-07-31T14:52:32;92559.41;;;23.76;57.17
57248;BME280;55809;46.618;10.764;2023-07-31T14:54:59;92548.16;;;23.80;55.98
57248;BME280;55809;46.618;10.764;2023-07-31T14:57:26;92533.88;;;23.81;57.25
57248;BME280;55809;46.618;10.764;2023-07-31T14:59:53;92557.50;;;23.94;56.46
57248;BME280;55809;46.618;10.764;2023-07-31T15:02:20;92523.59;;;23.76;56.95
57248;BME280;55809;46.618;10.764;2023-07-31T15:04:47;92557.72;;;23.90;54.96
57248;BME280;55809;46.618;10.764;2023-07-31T15:07:16;92552.19;;;23.84;56.99
57248;BME280;55809;46.618;10.764;2023-07-31T15:09:43;92559.47;;;23.87;57.42
57248;BME280;55809;46.618;10.764;2023-07-31T15:12:10;92553.16;;;23.81;55.71
57248;BME280;55809;46.618;10.764;2023-07-31T15:14:38;92550.63;;;23.78;57.38
57248;BME280;55809;46.618;10.764;2023-07-31T15:17:06;92550.41;;;23.81;57.72
57248;BME280;55809;46.618;10.764;2023-07-31T15:19:34;92558.16;;;23.77;58.30
57248;BME280;55809;46.618;10.764;2023-07-31T15:22:03;92556.38;;;23.74;58.18
57248;BME280;55809;46.618;10.764;2023-07-31T15:24:32;92557.97;;;23.92;59.10
57248;BME280;55809;46.618;10.764;2023-07-31T15:26:59;92533.75;;;23.64;56.98
57248;BME280;55809;46.618;10.764;2023-07-31T15:29:27;92544.59;;;23.74;58.77
57248;BME280;55809;46.618;10.764;2023-07-31T15:31:54;92543.88;;;23.79;57.84
57248;BME280;55809;46.618;10.764;2023-07-31T15:34:22;92559.44;;;23.82;57.86
57248;BME280;55809;46.618;10.764;2023-07-31T15:36:50;92553.16;;;23.76;57.89
57248;BME280;55809;46.618;10.764;2023-07-31T15:39:16;92552.66;;;23.77;59.54
57248;BME280;55809;46.618;10.764;2023-07-31T15:41:45;92549.69;;;23.86;58.02
57248;BME280;55809;46.618;10.764;2023-07-31T15:44:12;92540.13;;;23.76;58.09
57248;BME280;55809;46.618;10.764;2023-07-31T15:46:39;92540.59;;;23.75;58.19
57248;BME280;55809;46.618;10.764;2023-07-31T15:49:06;92554.13;;;23.73;58.53
57248;BME280;55809;46.618;10.764;2023-07-31T15:51:33;92543.03;;;23.67;59.73
57248;BME280;55809;46.618;10.764;2023-07-31T15:54:00;92546.78;;;23.64;60.37
57248;BME280;55809;46.618;10.764;2023-07-31T15:56:27;92532.94;;;23.53;59.08
57248;BME280;55809;46.618;10.764;2023-07-31T15:58:56;92543.47;;;23.54;60.98
57248;BME280;55809;46.618;10.764;2023-07-31T16:01:24;92539.19;;;23.53;60.85
57248;BME280;55809;46.618;10.764;2023-07-31T16:03:51;92551.44;;;23.52;61.47
57248;BME280;55809;46.618;10.764;2023-07-31T16:06:18;92508.94;;;23.22;62.11
57248;BME280;55809;46.618;10.764;2023-07-31T16:08:45;92551.91;;;23.45;63.45
57248;BME280;55809;46.618;10.764;2023-07-31T16:11:12;92546.16;;;23.43;64.11
57248;BME280;55809;46.618;10.764;2023-07-31T16:13:39;92539.44;;;23.50;64.87
57248;BME280;55809;46.618;10.764;2023-07-31T16:16:08;92533.47;;;23.57;65.31
57248;BME280;55809;46.618;10.764;2023-07-31T16:18:34;92534.44;;;23.54;66.30
57248;BME280;55809;46.618;10.764;2023-07-31T16:21:02;92517.47;;;23.29;65.23
57248;BME280;55809;46.618;10.764;2023-07-31T16:23:28;92539.09;;;23.42;64.99
57248;BME280;55809;46.618;10.764;2023-07-31T16:25:55;92531.81;;;23.39;65.55
57248;BME280;55809;46.618;10.764;2023-07-31T16:28:22;92520.50;;;23.31;66.19
57248;BME280;55809;46.618;10.764;2023-07-31T16:30:49;92530.13;;;23.47;66.36
57248;BME280;55809;46.618;10.764;2023-07-31T16:33:18;92529.63;;;23.49;66.60
57248;BME280;55809;46.618;10.764;2023-07-31T16:35:45;92523.91;;;23.52;65.95
57248;BME280;55809;46.618;10.764;2023-07-31T16:38:12;92531.41;;;23.52;65.07
57248;BME280;55809;46.618;10.764;2023-07-31T16:40:39;92526.41;;;23.50;65.50
57248;BME280;55809;46.618;10.764;2023-07-31T16:43:06;92530.13;;;23.47;65.27